Time;durP1;ratioP1;P1;durP2;ratioP2;P2;SDS_P1;SDS_P2;PMS_P1;PMS_P2;Temp;Humidity;BMP_temperature;BMP_pressure;BME280_temperature;BME280_humidity;BME280_pressure;Samples;Min_cycle;Max_cycle;Signal;HPM_P1;HPM_P2
2022/10/03 00:01:15;;;;;;;12.15;5.22;;;;;;;;;;5008905;28;20468;-65
2022/10/03 00:03:46;;;;;;;11.60;5.50;;;;;;;;;;5005085;28;20072;-64
2022/10/03 00:06:12;;;;;;;12.77;4.97;;;;;;;;;;4993609;28;20021;-65
2022/10/03 00:08:47;;;;;;;12.38;5.13;;;;;;;;;;5017499;28;20024;-65
2022/10/03 00:11:26;;;;;;;15.13;6.55;;;;;;;;;;5008833;28;20014;-65
2022/10/03 00:14:01;;;;;;;19.33;8.30;;;;;;;;;;5007372;28;20030;-65
2022/10/03 00:16:28;;;;;;;19.75;7.43;;;;;;;;;;5005233;28;20064;-65
2022/10/03 00:18:56;;;;;;;22.38;7.00;;;;;;;;;;5010746;28;20026;-65
2022/10/03 00:21:31;;;;;;;16.73;6.32;;;;;;;;;;5008115;28;20017;-65
2022/10/03 00:24:05;;;;;;;19.38;5.43;;;;;;;;;;5012114;28;20132;-64
2022/10/03 00:26:33;;;;;;;11.25;5.32;;;;;;;;;;5011066;28;20026;-65
2022/10/03 00:29:19;;;;;;;12.93;4.55;;;;;;;;;;5007263;28;20049;-65
2022/10/03 00:31:56;;;;;;;11.20;5.30;;;;;;;;;;5008446;28;20014;-65
2022/10/03 00:34:26;;;;;;;10.90;4.45;;;;;;;;;;5007454;28;20209;-64
2022/10/03 00:37:04;;;;;;;11.23;5.38;;;;;;;;;;5009180;28;20381;-65
2022/10/03 00:39:29;;;;;;;12.25;4.90;;;;;;;;;;5009053;28;20030;-64
2022/10/03 00:41:54;;;;;;;12.52;5.70;;;;;;;;;;5009291;28;20048;-65
2022/10/03 00:44:28;;;;;;;7.57;3.90;;;;;;;;;;5007219;28;20323;-65
2022/10/03 00:47:00;;;;;;;10.77;4.38;;;;;;;;;;5007644;28;20429;-64
2022/10/03 00:49:37;;;;;;;14.68;4.85;;;;;;;;;;5008114;28;20072;-64
2022/10/03 00:52:18;;;;;;;12.80;4.88;;;;;;;;;;5010384;28;20509;-64
2022/10/03 00:54:55;;;;;;;15.20;5.05;;;;;;;;;;5021397;28;20032;-64
2022/10/03 00:57:20;;;;;;;23.02;5.07;;;;;;;;;;5012537;28;20031;-65
2022/10/03 00:59:51;;;;;;;10.40;4.83;;;;;;;;;;5009154;28;20543;-65
2022/10/03 01:02:29;;;;;;;15.57;5.35;;;;;;;;;;5009207;28;20276;-65
2022/10/03 01:04:59;;;;;;;11.55;4.38;;;;;;;;;;5011488;28;20025;-65
2022/10/03 01:07:24;;;;;;;;;;;;;;;;;;4990367;28;20021;-65
2022/10/03 01:09:49;;;;;;;13.48;4.57;;;;;;;;;;5010350;28;19909;-64
2022/10/03 01:12:21;;;;;;;8.32;3.88;;;;;;;;;;5009303;28;20021;-64
2022/10/03 01:14:53;;;;;;;9.48;4.32;;;;;;;;;;5009565;28;20826;-64
2022/10/03 01:17:46;;;;;;;12.68;4.20;;;;;;;;;;5008834;28;20482;-64
2022/10/03 01:20:11;;;;;;;11.13;4.70;;;;;;;;;;4982522;28;20541;-64
2022/10/03 01:22:58;;;;;;;16.60;4.30;;;;;;;;;;5010417;28;20108;-64
2022/10/03 01:25:23;;;;;;;15.38;4.90;;;;;;;;;;5004649;28;20288;-65
2022/10/03 01:31:05;;;;;;;12.98;3.88;;;;;;;;;;5005134;28;20359;-64
2022/10/03 01:33:36;;;;;;;13.00;4.13;;;;;;;;;;5010879;28;20093;-64
2022/10/03 01:36:06;;;;;;;10.35;4.43;;;;;;;;;;5014466;28;21492;-64
2022/10/03 01:38:49;;;;;;;14.73;4.20;;;;;;;;;;5014722;28;20029;-64
2022/10/03 01:41:32;;;;;;;11.23;4.63;;;;;;;;;;5015472;28;20030;-64
2022/10/03 01:44:03;;;;;;;8.75;4.00;;;;;;;;;;5014727;28;20045;-65
2022/10/03 01:46:37;;;;;;;5.93;3.78;;;;;;;;;;5007037;28;20021;-65
2022/10/03 01:49:17;;;;;;;8.48;4.30;;;;;;;;;;5014152;28;20070;-64
2022/10/03 01:51:55;;;;;;;13.38;4.13;;;;;;;;;;5012849;28;20022;-66
2022/10/03 01:54:38;;;;;;;13.88;4.30;;;;;;;;;;5009906;28;20045;-64
2022/10/03 01:57:12;;;;;;;12.40;4.63;;;;;;;;;;5012808;28;20490;-64
2022/10/03 01:59:40;;;;;;;13.90;3.83;;;;;;;;;;5013449;28;20022;-64
2022/10/03 02:02:23;;;;;;;22.27;4.38;;;;;;;;;;5020481;28;20101;-64
2022/10/03 02:04:48;;;;;;;11.68;4.38;;;;;;;;;;5013107;28;20044;-64
2022/10/03 02:07:27;;;;;;;7.88;3.42;;;;;;;;;;5029391;28;20017;-64
2022/10/03 02:10:01;;;;;;;9.98;4.03;;;;;;;;;;5010980;28;20288;-64
2022/10/03 02:12:38;;;;;;;11.38;4.32;;;;;;;;;;5011586;28;20028;-64
2022/10/03 02:15:04;;;;;;;8.52;3.75;;;;;;;;;;5015220;28;20060;-64
2022/10/03 02:17:46;;;;;;;10.60;3.85;;;;;;;;;;5013481;28;20049;-64
2022/10/03 02:20:24;;;;;;;11.07;3.60;;;;;;;;;;5010287;28;20018;-64
2022/10/03 02:22:52;;;;;;;13.18;3.90;;;;;;;;;;5011602;28;20371;-65
2022/10/03 02:25:17;;;;;;;9.90;4.03;;;;;;;;;;5014004;28;20385;-64
2022/10/03 02:28:01;;;;;;;17.17;4.23;;;;;;;;;;5004249;28;20108;-65
2022/10/03 02:30:29;;;;;;;8.90;3.70;;;;;;;;;;5005529;28;20761;-65
2022/10/03 02:32:57;;;;;;;11.90;3.90;;;;;;;;;;5009073;28;20026;-65
2022/10/03 02:35:22;;;;;;;12.35;4.57;;;;;;;;;;5010539;28;20040;-64
2022/10/03 02:37:56;;;;;;;11.53;4.67;;;;;;;;;;5011493;28;20482;-64
2022/10/03 02:40:40;;;;;;;16.05;4.40;;;;;;;;;;5011364;28;20273;-63
2022/10/03 02:43:13;;;;;;;12.02;4.10;;;;;;;;;;5011886;28;20029;-64
2022/10/03 02:45:57;;;;;;;10.90;3.75;;;;;;;;;;5009490;28;20029;-64
2022/10/03 02:48:28;;;;;;;17.05;4.00;;;;;;;;;;5011757;28;20018;-65
2022/10/03 02:51:13;;;;;;;12.15;3.78;;;;;;;;;;5011895;28;20076;-65
2022/10/03 02:53:59;;;;;;;14.43;3.38;;;;;;;;;;5014410;28;20095;-64
2022/10/03 02:56:33;;;;;;;13.32;3.80;;;;;;;;;;5006260;28;20025;-64
2022/10/03 02:59:13;;;;;;;12.98;4.13;;;;;;;;;;5013275;28;20381;-64
2022/10/03 03:01:44;;;;;;;7.40;3.92;;;;;;;;;;5012099;28;20026;-64
2022/10/03 03:04:28;;;;;;;12.52;3.97;;;;;;;;;;5010836;28;20493;-65
2022/10/03 03:06:56;;;;;;;17.10;4.15;;;;;;;;;;5012519;28;20026;-64
2022/10/03 03:09:34;;;;;;;18.73;3.83;;;;;;;;;;5010209;28;20053;-65
2022/10/03 03:12:06;;;;;;;13.75;4.40;;;;;;;;;;5018181;28;20017;-64
2022/10/03 03:14:38;;;;;;;18.58;4.20;;;;;;;;;;5010426;28;20112;-65
2022/10/03 03:17:13;;;;;;;14.65;4.22;;;;;;;;;;5011983;28;20478;-64
2022/10/03 03:19:47;;;;;;;17.75;3.97;;;;;;;;;;5009887;28;20033;-63
2022/10/03 03:22:31;;;;;;;15.57;4.13;;;;;;;;;;5010857;28;20022;-64
2022/10/03 03:24:59;;;;;;;19.63;4.60;;;;;;;;;;5012540;28;20040;-64
2022/10/03 03:27:43;;;;;;;19.85;4.43;;;;;;;;;;5016586;28;20422;-64
2022/10/03 03:30:19;;;;;;;19.85;5.90;;;;;;;;;;5010424;28;20045;-64
2022/10/03 03:32:53;;;;;;;9.80;3.95;;;;;;;;;;5009306;28;20017;-65
2022/10/03 03:35:36;;;;;;;12.80;4.32;;;;;;;;;;5009759;28;20104;-64
2022/10/03 03:38:17;;;;;;;12.82;4.25;;;;;;;;;;5019305;28;20494;-64
2022/10/03 03:40:57;;;;;;;14.00;4.32;;;;;;;;;;5010664;28;20025;-64
2022/10/03 03:43:36;;;;;;;14.15;3.85;;;;;;;;;;5008156;28;20021;-64
2022/10/03 03:46:01;;;;;;;14.98;4.68;;;;;;;;;;5005983;28;20187;-64
2022/10/03 03:48:37;;;;;;;10.93;3.85;;;;;;;;;;5012850;28;20415;-64
2022/10/03 03:51:02;;;;;;;11.32;3.47;;;;;;;;;;5013602;28;20273;-64
2022/10/03 03:53:43;;;;;;;13.50;5.18;;;;;;;;;;5009491;28;20419;-65
2022/10/03 03:56:08;;;;;;;;;;;;;;;;;;5010198;28;20030;-64
2022/10/03 03:58:36;;;;;;;17.05;3.83;;;;;;;;;;5012088;28;19909;-64
2022/10/03 04:01:19;;;;;;;15.07;4.40;;;;;;;;;;5008889;28;20025;-65
2022/10/03 04:03:57;;;;;;;12.30;4.45;;;;;;;;;;5009385;28;20022;-64
2022/10/03 04:06:22;;;;;;;13.52;3.53;;;;;;;;;;5012226;28;20018;-64
2022/10/03 04:09:06;;;;;;;14.30;4.00;;;;;;;;;;5002854;28;20030;-65
2022/10/03 04:11:31;;;;;;;14.50;4.50;;;;;;;;;;5010469;28;20025;-64
2022/10/03 04:13:59;;;;;;;11.85;4.63;;;;;;;;;;5009748;28;20386;-64
2022/10/03 04:19:33;;;;;;;15.75;4.85;;;;;;;;;;5009687;28;20433;-64
2022/10/03 04:22:08;;;;;;;20.25;4.35;;;;;;;;;;5006315;28;20033;-64
2022/10/03 04:24:33;;;;;;;14.88;4.70;;;;;;;;;;5005702;28;20029;-64
2022/10/03 04:26:58;;;;;;;16.27;5.95;;;;;;;;;;5007356;28;20021;-64
2022/10/03 04:29:39;;;;;;;14.03;4.53;;;;;;;;;;5009583;28;20014;-64
2022/10/03 04:32:33;;;;;;;13.40;4.43;;;;;;;;;;5008679;28;20284;-64
2022/10/03 04:35:17;;;;;;;14.98;5.93;;;;;;;;;;5006170;28;20040;-64
2022/10/03 04:37:46;;;;;;;12.77;4.80;;;;;;;;;;5011489;28;20382;-64
2022/10/03 04:40:37;;;;;;;20.92;4.95;;;;;;;;;;4991100;28;20124;-64
2022/10/03 04:43:16;;;;;;;14.95;4.95;;;;;;;;;;5009833;28;20030;-65
2022/10/03 04:45:44;;;;;;;14.77;4.88;;;;;;;;;;5009215;28;20429;-64
2022/10/03 04:48:09;;;;;;;9.52;4.47;;;;;;;;;;5008880;28;20049;-64
2022/10/03 04:50:41;;;;;;;14.38;4.30;;;;;;;;;;5010099;28;20048;-64
2022/10/03 04:53:06;;;;;;;16.77;5.00;;;;;;;;;;5011184;28;20501;-65
2022/10/03 04:55:38;;;;;;;12.55;5.25;;;;;;;;;;5010880;28;20046;-64
2022/10/03 04:58:06;;;;;;;12.07;5.22;;;;;;;;;;5012319;28;20679;-64
2022/10/03 05:00:34;;;;;;;15.18;4.50;;;;;;;;;;5010276;28;20025;-64
2022/10/03 05:03:02;;;;;;;32.00;5.03;;;;;;;;;;5007383;28;20391;-64
2022/10/03 05:05:46;;;;;;;16.25;7.07;;;;;;;;;;5009483;28;20017;-64
2022/10/03 05:08:11;;;;;;;16.63;4.97;;;;;;;;;;5006724;28;20468;-64
2022/10/03 05:10:47;;;;;;;26.37;5.20;;;;;;;;;;5004792;28;20025;-64
2022/10/03 05:13:21;;;;;;;32.60;5.65;;;;;;;;;;5023908;28;20281;-64
2022/10/03 05:15:50;;;;;;;14.75;4.65;;;;;;;;;;5009990;28;20029;-65
2022/10/03 05:18:28;;;;;;;19.05;5.18;;;;;;;;;;5006760;28;20029;-64
2022/10/03 05:21:04;;;;;;;16.25;6.10;;;;;;;;;;5006335;28;20117;-64
2022/10/03 05:23:48;;;;;;;24.23;5.32;;;;;;;;;;5008511;28;20020;-65
2022/10/03 05:26:13;;;;;;;18.35;6.20;;;;;;;;;;5010541;28;20084;-64
2022/10/03 05:29:01;;;;;;;16.63;5.50;;;;;;;;;;5008443;28;20414;-64
2022/10/03 05:31:48;;;;;;;20.17;5.32;;;;;;;;;;5006251;28;20268;-64
2022/10/03 05:34:28;;;;;;;11.48;5.95;;;;;;;;;;4992180;28;20136;-64
2022/10/03 05:37:03;;;;;;;12.95;5.78;;;;;;;;;;5010983;28;20022;-64
2022/10/03 05:39:47;;;;;;;12.77;5.75;;;;;;;;;;5007900;28;20017;-65
2022/10/03 05:42:15;;;;;;;18.10;5.80;;;;;;;;;;5008209;28;20577;-64
2022/10/03 05:44:49;;;;;;;17.35;5.28;;;;;;;;;;5005675;28;20049;-64
2022/10/03 05:50:13;;;;;;;18.52;6.40;;;;;;;;;;5009874;28;20076;-64
2022/10/03 05:52:39;;;;;;;18.02;5.70;;;;;;;;;;5008967;28;20025;-63
2022/10/03 05:55:27;;;;;;;17.55;5.65;;;;;;;;;;5009302;28;20455;-64
2022/10/03 05:58:01;;;;;;;15.38;6.10;;;;;;;;;;5006525;28;20113;-64
2022/10/03 06:00:29;;;;;;;25.55;6.00;;;;;;;;;;5000954;28;20510;-64
2022/10/03 06:03:04;;;;;;;24.27;6.30;;;;;;;;;;5006246;28;20483;-64
2022/10/03 06:05:29;;;;;;;18.42;6.60;;;;;;;;;;5008869;28;20036;-64
2022/10/03 06:07:55;;;;;;;21.05;6.57;;;;;;;;;;5011181;28;20022;-64
2022/10/03 06:10:40;;;;;;;13.75;5.63;;;;;;;;;;5008523;28;20032;-64
2022/10/03 06:13:05;;;;;;;17.30;5.95;;;;;;;;;;4976219;28;20280;-64
2022/10/03 06:15:53;;;;;;;21.50;6.27;;;;;;;;;;5007857;28;20041;-64
2022/10/03 06:18:18;;;;;;;16.80;5.90;;;;;;;;;;5017689;28;20275;-64
2022/10/03 06:20:43;;;;;;;21.73;7.10;;;;;;;;;;5013449;28;20018;-65
2022/10/03 06:23:11;;;;;;;23.83;5.95;;;;;;;;;;5014552;28;20296;-64
2022/10/03 06:25:45;;;;;;;17.30;6.18;;;;;;;;;;5011632;28;20280;-64
2022/10/03 06:28:13;;;;;;;20.30;6.65;;;;;;;;;;5012320;28;20018;-64
2022/10/03 06:30:50;;;;;;;23.85;6.43;;;;;;;;;;5013583;28;20026;-64
2022/10/03 06:33:34;;;;;;;21.10;6.07;;;;;;;;;;5014106;28;20018;-64
2022/10/03 06:36:11;;;;;;;25.15;6.57;;;;;;;;;;5011125;28;20026;-64
2022/10/03 06:38:45;;;;;;;23.77;7.72;;;;;;;;;;5011039;28;20471;-64
2022/10/03 06:41:22;;;;;;;19.77;7.30;;;;;;;;;;5012542;28;20032;-64
2022/10/03 06:44:00;;;;;;;15.88;7.20;;;;;;;;;;5007623;28;20033;-64
2022/10/03 06:46:37;;;;;;;21.60;7.57;;;;;;;;;;5010372;28;20018;-64
2022/10/03 06:49:21;;;;;;;20.73;7.93;;;;;;;;;;5012443;28;20022;-64
2022/10/03 06:51:55;;;;;;;26.75;7.47;;;;;;;;;;5021123;28;20317;-64
2022/10/03 06:54:20;;;;;;;18.25;7.13;;;;;;;;;;5009980;28;20502;-65
2022/10/03 06:57:05;;;;;;;16.75;7.25;;;;;;;;;;5014659;28;20072;-64
2022/10/03 06:59:36;;;;;;;24.98;7.40;;;;;;;;;;5008065;28;20158;-65
2022/10/03 07:02:16;;;;;;;19.50;8.10;;;;;;;;;;5008688;28;20021;-64
2022/10/03 07:05:00;;;;;;;28.98;7.60;;;;;;;;;;5010387;28;20021;-64
2022/10/03 07:07:25;;;;;;;24.88;7.63;;;;;;;;;;5007641;28;20385;-64
2022/10/03 07:10:23;;;;;;;22.87;9.83;;;;;;;;;;5006507;28;20455;-64
2022/10/03 07:13:06;;;;;;;23.63;8.60;;;;;;;;;;4976885;28;20284;-64
2022/10/03 07:15:50;;;;;;;25.75;7.18;;;;;;;;;;5008354;28;20504;-64
2022/10/03 07:18:21;;;;;;;29.40;9.05;;;;;;;;;;5008495;28;20188;-64
2022/10/03 07:21:00;;;;;;;31.95;8.23;;;;;;;;;;5007369;28;20030;-65
2022/10/03 07:23:32;;;;;;;23.30;7.70;;;;;;;;;;5011078;28;20021;-64
2022/10/03 07:26:16;;;;;;;32.38;8.85;;;;;;;;;;5010714;28;20025;-65
2022/10/03 07:28:55;;;;;;;36.00;8.35;;;;;;;;;;5002046;28;20041;-64
2022/10/03 07:31:39;;;;;;;20.73;7.85;;;;;;;;;;5005512;28;20029;-64
2022/10/03 07:34:28;;;;;;;34.88;7.82;;;;;;;;;;5010099;28;20352;-64
2022/10/03 07:40:00;;;;;;;23.13;8.60;;;;;;;;;;5007125;28;20115;-64
2022/10/03 07:42:45;;;;;;;21.27;8.10;;;;;;;;;;5004710;28;20021;-64
2022/10/03 07:45:23;;;;;;;23.92;8.00;;;;;;;;;;5006069;28;20018;-64
2022/10/03 07:48:04;;;;;;;22.92;8.30;;;;;;;;;;5002862;28;20085;-65
2022/10/03 07:50:39;;;;;;;25.85;9.23;;;;;;;;;;5007964;28;20467;-64
2022/10/03 07:53:08;;;;;;;23.73;9.55;;;;;;;;;;5007248;28;20052;-64
2022/10/03 07:55:45;;;;;;;26.13;8.02;;;;;;;;;;4984859;28;20021;-64
2022/10/03 07:58:29;;;;;;;31.90;9.52;;;;;;;;;;5009996;28;20478;-64
2022/10/03 08:01:19;;;;;;;26.33;9.18;;;;;;;;;;5006573;28;20065;-64
2022/10/03 08:03:50;;;;;;;22.38;7.78;;;;;;;;;;5008057;28;20033;-64
2022/10/03 08:06:36;;;;;;;23.20;9.70;;;;;;;;;;5006359;28;20029;-64
2022/10/03 08:09:10;;;;;;;26.98;10.15;;;;;;;;;;5005488;28;20032;-64
2022/10/03 08:12:04;;;;;;;37.33;10.95;;;;;;;;;;5019960;28;20032;-65
2022/10/03 08:14:44;;;;;;;34.72;9.80;;;;;;;;;;5002693;28;20022;-64
2022/10/03 08:17:12;;;;;;;33.38;10.48;;;;;;;;;;5008437;28;20033;-63
2022/10/03 08:19:50;;;;;;;36.40;11.45;;;;;;;;;;5004603;28;20022;-64
2022/10/03 08:22:27;;;;;;;36.83;9.95;;;;;;;;;;5005807;28;20026;-64
2022/10/03 08:24:52;;;;;;;25.92;8.18;;;;;;;;;;5009412;28;20029;-65
2022/10/03 08:27:47;;;;;;;33.58;7.72;;;;;;;;;;5007102;28;20597;-64
2022/10/03 08:30:18;;;;;;;28.98;8.02;;;;;;;;;;4999239;28;20136;-64
2022/10/03 08:32:49;;;;;;;19.02;7.20;;;;;;;;;;5008067;28;20026;-64
2022/10/03 08:35:20;;;;;;;25.17;8.15;;;;;;;;;;5005919;28;20037;-64
2022/10/03 08:38:06;;;;;;;20.42;7.55;;;;;;;;;;5006491;28;20747;-65
2022/10/03 08:40:37;;;;;;;22.15;7.80;;;;;;;;;;4962906;28;20173;-65
2022/10/03 08:43:08;;;;;;;24.30;7.00;;;;;;;;;;5011159;28;20044;-64
2022/10/03 08:45:33;;;;;;;23.10;7.78;;;;;;;;;;5006570;28;20021;-64
2022/10/03 08:48:12;;;;;;;24.65;8.32;;;;;;;;;;5005664;28;20021;-64
2022/10/03 08:51:01;;;;;;;35.20;8.48;;;;;;;;;;5006400;28;20040;-64
2022/10/03 08:53:30;;;;;;;28.15;10.02;;;;;;;;;;5000733;28;20029;-64
2022/10/03 08:56:06;;;;;;;24.17;9.07;;;;;;;;;;5005293;28;20414;-65
2022/10/03 08:58:50;;;;;;;32.72;9.50;;;;;;;;;;5006065;28;20041;-64
2022/10/03 09:01:34;;;;;;;27.95;8.88;;;;;;;;;;5008308;28;20109;-65
2022/10/03 09:04:05;;;;;;;27.65;9.25;;;;;;;;;;5009257;28;20034;-64
2022/10/03 09:06:43;;;;;;;31.75;8.90;;;;;;;;;;5004896;28;20018;-64
2022/10/03 09:09:27;;;;;;;27.90;9.35;;;;;;;;;;5009805;28;20022;-65
2022/10/03 09:12:16;;;;;;;31.60;9.30;;;;;;;;;;5009273;28;20026;-65
2022/10/03 09:14:44;;;;;;;24.42;8.07;;;;;;;;;;4996464;28;20375;-65
2022/10/03 09:17:09;;;;;;;27.90;10.05;;;;;;;;;;5006517;28;20026;-65
2022/10/03 09:19:52;;;;;;;28.10;10.13;;;;;;;;;;5005213;28;20014;-64
2022/10/03 09:22:23;;;;;;;32.42;9.02;;;;;;;;;;5028426;23;20590;-65
2022/10/03 09:25:10;;;;;;;25.13;9.30;;;;;;;;;;5044828;28;20045;-67
2022/10/03 09:27:39;;;;;;;25.13;8.80;;;;;;;;;;5040833;28;20052;-65
2022/10/03 09:30:15;;;;;;;35.17;10.47;;;;;;;;;;5045836;28;20017;-69
2022/10/03 09:33:09;;;;;;;31.30;9.27;;;;;;;;;;5047286;28;20021;-67
2022/10/03 09:35:37;;;;;;;31.95;10.25;;;;;;;;;;4974154;28;20039;-68
2022/10/03 09:38:11;;;;;;;28.10;8.85;;;;;;;;;;5051293;28;20087;-66
2022/10/03 09:40:42;;;;;;;30.98;8.95;;;;;;;;;;5045310;28;20052;-65
2022/10/03 09:43:30;;;;;;;27.10;7.50;;;;;;;;;;5046940;28;20028;-65
2022/10/03 09:46:14;;;;;;;29.05;8.15;;;;;;;;;;5044875;28;20432;-67
2022/10/03 09:48:42;;;;;;;21.30;9.00;;;;;;;;;;5044416;28;20025;-69
2022/10/03 09:51:13;;;;;;;34.35;10.95;;;;;;;;;;5046969;28;20079;-70
2022/10/03 09:53:56;;;;;;;30.75;10.27;;;;;;;;;;5045886;28;20021;-65
2022/10/03 09:56:24;;;;;;;34.72;9.98;;;;;;;;;;5052704;28;20476;-70
2022/10/03 09:59:05;;;;;;;25.15;8.52;;;;;;;;;;5050899;28;20021;-70
2022/10/03 10:01:33;;;;;;;21.73;8.38;;;;;;;;;;5051519;28;20029;-65
2022/10/03 10:04:01;;;;;;;21.90;8.95;;;;;;;;;;5046412;28;20485;-65
2022/10/03 10:06:27;;;;;;;39.50;11.20;;;;;;;;;;5052489;28;20156;-65
2022/10/03 10:09:18;;;;;;;24.63;9.00;;;;;;;;;;5048775;28;20108;-67
2022/10/03 10:11:46;;;;;;;20.67;7.38;;;;;;;;;;5016676;28;20821;-65
2022/10/03 10:14:17;;;;;;;29.77;9.63;;;;;;;;;;5050801;28;20043;-65
2022/10/03 10:17:01;;;;;;;27.55;10.65;;;;;;;;;;5053296;28;20096;-66
2022/10/03 10:19:29;;;;;;;30.92;9.55;;;;;;;;;;5050296;28;20021;-66
2022/10/03 10:22:08;;;;;;;25.92;9.68;;;;;;;;;;5047362;28;20366;-68
2022/10/03 10:24:47;;;;;;;29.23;9.30;;;;;;;;;;5041761;28;20356;-66
2022/10/03 10:27:12;;;;;;;29.98;8.75;;;;;;;;;;5051372;28;20082;-69
2022/10/03 10:29:46;;;;;;;22.37;7.40;;;;;;;;;;5046967;28;20024;-66
2022/10/03 10:32:17;;;;;;;28.50;6.95;;;;;;;;;;5049507;28;20282;-69
2022/10/03 10:34:45;;;;;;;23.40;7.10;;;;;;;;;;5051058;28;20048;-67
2022/10/03 10:37:26;;;;;;;29.25;6.20;;;;;;;;;;5047907;28;20028;-68
2022/10/03 10:39:54;;;;;;;26.80;6.30;;;;;;;;;;5049827;28;20377;-66
2022/10/03 10:42:38;;;;;;;23.42;5.35;;;;;;;;;;5050631;28;20048;-66
2022/10/03 10:45:12;;;;;;;21.77;5.28;;;;;;;;;;5048093;28;20026;-68
2022/10/03 10:47:40;;;;;;;22.20;5.55;;;;;;;;;;5044818;28;20021;-66
2022/10/03 10:50:24;;;;;;;21.85;6.88;;;;;;;;;;5059433;28;20025;-66
2022/10/03 10:53:11;;;;;;;17.95;4.22;;;;;;;;;;5049063;28;20086;-71
2022/10/03 10:55:39;;;;;;;20.63;5.53;;;;;;;;;;5047928;28;20392;-66
2022/10/03 10:58:07;;;;;;;24.02;5.10;;;;;;;;;;5049863;28;20055;-69
2022/10/03 11:01:01;;;;;;;20.20;4.50;;;;;;;;;;5046073;28;20050;-67
2022/10/03 11:03:32;;;;;;;15.10;3.08;;;;;;;;;;4981529;28;20045;-66
2022/10/03 11:05:58;;;;;;;13.95;3.08;;;;;;;;;;5047945;28;20405;-68
2022/10/03 11:08:36;;;;;;;16.20;2.80;;;;;;;;;;5048243;28;20017;-67
2022/10/03 11:11:19;;;;;;;17.05;4.85;;;;;;;;;;5049297;28;20078;-67
2022/10/03 11:13:44;;;;;;;26.35;4.20;;;;;;;;;;5048673;28;20216;-67
2022/10/03 11:16:13;;;;;;;20.17;4.50;;;;;;;;;;5057117;28;20051;-66
2022/10/03 11:18:53;;;;;;;16.40;3.92;;;;;;;;;;5049796;28;20032;-66
2022/10/03 11:21:18;;;;;;;;;;;;;;;;;;5046682;28;20020;-69
2022/10/03 11:23:46;;;;;;;14.98;3.42;;;;;;;;;;5050294;28;20313;-66
2022/10/03 11:26:30;;;;;;;12.13;3.03;;;;;;;;;;5046393;28;20025;-66
2022/10/03 11:29:14;;;;;;;17.88;3.28;;;;;;;;;;5042767;28;20488;-66
2022/10/03 11:31:47;;;;;;;19.98;2.92;;;;;;;;;;5044575;28;20033;-66
2022/10/03 11:34:15;;;;;;;13.30;2.38;;;;;;;;;;5031317;28;20098;-68
2022/10/03 11:36:52;;;;;;;14.55;2.63;;;;;;;;;;5048552;28;20384;-70
2022/10/03 11:39:33;;;;;;;8.20;2.15;;;;;;;;;;5047836;28;20025;-66
2022/10/03 11:42:03;;;;;;;12.93;2.72;;;;;;;;;;5046445;28;20065;-68
2022/10/03 11:44:28;;;;;;;;;;;;;;;;;;5061054;28;20099;-66
2022/10/03 11:46:53;;;;;;;12.00;1.90;;;;;;;;;;5045815;28;19908;-71
2022/10/03 11:49:19;;;;;;;11.57;2.05;;;;;;;;;;5047135;28;20029;-66
2022/10/03 11:51:54;;;;;;;15.15;2.50;;;;;;;;;;5048454;28;20013;-66
2022/10/03 11:54:26;;;;;;;11.43;2.35;;;;;;;;;;5047096;28;20078;-66
2022/10/03 11:57:01;;;;;;;9.00;1.88;;;;;;;;;;5043365;28;20033;-66
2022/10/03 11:59:36;;;;;;;12.55;2.30;;;;;;;;;;5047515;28;20021;-71
2022/10/03 12:02:08;;;;;;;11.10;1.70;;;;;;;;;;5045344;28;20484;-69
2022/10/03 12:04:46;;;;;;;8.32;1.65;;;;;;;;;;5047490;28;20056;-70
2022/10/03 12:09:55;;;;;;;7.07;1.73;;;;;;;;;;5047525;28;20043;-66
2022/10/03 12:12:34;;;;;;;4.23;1.27;;;;;;;;;;5052845;28;20132;-66
2022/10/03 12:15:22;;;;;;;9.48;2.10;;;;;;;;;;5044426;28;20307;-66
2022/10/03 12:17:56;;;;;;;10.68;1.80;;;;;;;;;;5037691;28;20045;-67
2022/10/03 12:20:36;;;;;;;10.88;1.83;;;;;;;;;;5042208;28;20111;-67
2022/10/03 12:23:28;;;;;;;12.60;1.42;;;;;;;;;;5045485;28;20040;-66
2022/10/03 12:25:54;;;;;;;9.68;1.30;;;;;;;;;;5017907;28;20041;-67
2022/10/03 12:28:20;;;;;;;3.70;1.50;;;;;;;;;;5049775;28;20377;-66
2022/10/03 12:31:00;;;;;;;9.88;1.55;;;;;;;;;;5044226;28;20017;-66
2022/10/03 12:33:40;;;;;;;7.93;1.85;;;;;;;;;;5045415;28;20112;-66
2022/10/03 12:36:12;;;;;;;6.15;1.13;;;;;;;;;;5045424;28;20107;-66
2022/10/03 12:38:49;;;;;;;10.60;1.67;;;;;;;;;;5038856;28;20024;-71
2022/10/03 12:41:23;;;;;;;11.77;1.77;;;;;;;;;;5046193;28;20016;-66
2022/10/03 12:44:07;;;;;;;19.60;2.40;;;;;;;;;;5046187;28;20037;-67
2022/10/03 12:46:47;;;;;;;9.18;1.25;;;;;;;;;;5038254;28;20021;-71
2022/10/03 12:49:13;;;;;;;5.22;1.52;;;;;;;;;;5045549;28;20508;-66
2022/10/03 12:51:44;;;;;;;13.88;2.10;;;;;;;;;;5042645;28;20024;-67
2022/10/03 12:54:28;;;;;;;9.00;1.75;;;;;;;;;;5047464;28;20035;-70
2022/10/03 12:57:06;;;;;;;10.40;1.88;;;;;;;;;;5044771;28;20029;-67
2022/10/03 12:59:31;;;;;;;9.40;1.73;;;;;;;;;;5041043;28;20017;-70
2022/10/03 13:02:04;;;;;;;9.40;1.70;;;;;;;;;;5047826;28;20027;-69
2022/10/03 13:04:48;;;;;;;9.40;1.73;;;;;;;;;;5043937;28;20054;-67
2022/10/03 13:07:14;;;;;;;11.38;1.58;;;;;;;;;;5029347;28;20048;-68
2022/10/03 13:09:48;;;;;;;13.38;1.50;;;;;;;;;;5046179;28;20052;-66
2022/10/03 13:12:28;;;;;;;9.35;1.90;;;;;;;;;;5047046;28;20024;-69
2022/10/03 13:15:14;;;;;;;12.48;1.90;;;;;;;;;;5043438;28;20039;-66
2022/10/03 13:17:48;;;;;;;8.68;1.83;;;;;;;;;;5049572;28;20033;-70
2022/10/03 13:20:21;;;;;;;10.75;1.50;;;;;;;;;;5047889;28;20017;-68
2022/10/03 13:23:09;;;;;;;7.57;1.52;;;;;;;;;;5049457;28;20074;-69
2022/10/03 13:25:40;;;;;;;13.20;1.90;;;;;;;;;;5044638;28;20028;-71
2022/10/03 13:28:08;;;;;;;7.28;1.30;;;;;;;;;;5051497;28;20025;-67
2022/10/03 13:30:48;;;;;;;11.77;2.22;;;;;;;;;;5054333;28;20021;-72
2022/10/03 13:33:22;;;;;;;9.20;1.50;;;;;;;;;;5052282;28;20064;-69
2022/10/03 13:36:01;;;;;;;7.90;1.55;;;;;;;;;;5034690;28;20516;-70
2022/10/03 13:38:45;;;;;;;10.90;1.83;;;;;;;;;;5048191;28;20099;-72
2022/10/03 13:41:13;;;;;;;9.70;2.35;;;;;;;;;;5030238;28;20044;-68
2022/10/03 13:43:40;;;;;;;11.57;1.90;;;;;;;;;;5050741;28;21922;-70
2022/10/03 13:46:17;;;;;;;9.00;1.90;;;;;;;;;;5050947;28;20027;-66
2022/10/03 13:48:47;;;;;;;13.20;1.75;;;;;;;;;;5049329;28;20024;-66
2022/10/03 13:51:15;;;;;;;7.43;2.65;;;;;;;;;;5053808;28;20023;-66
2022/10/03 13:53:51;;;;;;;7.20;1.67;;;;;;;;;;5048367;28;20021;-67
2022/10/03 13:56:40;;;;;;;8.18;1.67;;;;;;;;;;5051066;28;20025;-69
2022/10/03 13:59:31;;;;;;;14.80;5.53;;;;;;;;;;5032720;28;20109;-68
2022/10/03 14:02:08;;;;;;;13.05;2.30;;;;;;;;;;5042259;28;20040;-70
2022/10/03 14:04:53;;;;;;;15.30;3.53;;;;;;;;;;5050397;28;20044;-69
2022/10/03 14:07:18;;;;;;;11.25;1.90;;;;;;;;;;5051946;28;20071;-70
2022/10/03 14:09:59;;;;;;;10.77;1.45;;;;;;;;;;5047601;28;20024;-66
2022/10/03 14:12:56;;;;;;;12.68;1.63;;;;;;;;;;5050395;28;20059;-68
2022/10/03 14:15:28;;;;;;;8.65;2.28;;;;;;;;;;5023402;28;20143;-67
2022/10/03 14:17:53;;;;;;;14.27;3.00;;;;;;;;;;5034498;28;20056;-67
2022/10/03 14:20:24;;;;;;;9.20;2.47;;;;;;;;;;5045425;28;20063;-69
2022/10/03 14:23:08;;;;;;;4.97;1.65;;;;;;;;;;5033491;28;20641;-67
2022/10/03 14:25:42;;;;;;;9.80;2.75;;;;;;;;;;5050882;28;20424;-67
2022/10/03 14:28:16;;;;;;;6.00;1.40;;;;;;;;;;5046698;28;20095;-72
2022/10/03 14:30:45;;;;;;;8.50;1.85;;;;;;;;;;5047632;28;20382;-67
2022/10/03 14:33:33;;;;;;;14.70;2.22;;;;;;;;;;5047186;28;20013;-70
2022/10/03 14:36:19;;;;;;;10.05;1.95;;;;;;;;;;5047689;28;20508;-67
2022/10/03 14:38:56;;;;;;;12.57;1.80;;;;;;;;;;5050354;28;20653;-66
2022/10/03 14:41:26;;;;;;;9.32;1.73;;;;;;;;;;5048410;28;20021;-68
2022/10/03 14:43:55;;;;;;;7.93;1.55;;;;;;;;;;5047341;28;20162;-66
2022/10/03 14:46:23;;;;;;;10.47;1.87;;;;;;;;;;5049015;28;20036;-69
2022/10/03 14:48:50;;;;;;;8.20;1.73;;;;;;;;;;5047705;28;20551;-69
2022/10/03 14:51:15;;;;;;;8.45;1.13;;;;;;;;;;5047196;28;20025;-67
2022/10/03 14:53:45;;;;;;;10.67;1.50;;;;;;;;;;5049050;28;20039;-67
2022/10/03 14:56:10;;;;;;;;;;;;;;;;;;5048086;28;20307;-65
2022/10/03 14:58:49;;;;;;;6.70;1.50;;;;;;;;;;5047700;28;20013;-66
2022/10/03 15:01:18;;;;;;;8.32;2.65;;;;;;;;;;5047390;28;20362;-66
2022/10/03 15:03:55;;;;;;;4.60;0.98;;;;;;;;;;5046082;28;20532;-66
2022/10/03 15:06:32;;;;;;;6.97;1.20;;;;;;;;;;5046868;28;20036;-68
2022/10/03 15:08:58;;;;;;;9.88;1.30;;;;;;;;;;5048728;28;20764;-66
2022/10/03 15:11:31;;;;;;;9.80;1.88;;;;;;;;;;5049473;28;20362;-67
2022/10/03 15:14:01;;;;;;;8.25;1.17;;;;;;;;;;5046141;28;20020;-68
2022/10/03 15:16:31;;;;;;;7.90;1.30;;;;;;;;;;5048151;28;20021;-69
2022/10/03 15:18:59;;;;;;;12.00;1.27;;;;;;;;;;5052105;28;20108;-70
2022/10/03 15:21:25;;;;;;;6.60;1.20;;;;;;;;;;5044547;28;20024;-68
2022/10/03 15:23:56;;;;;;;4.22;1.42;;;;;;;;;;5054388;22;20777;-86
2022/10/03 15:26:27;;;;;;;7.95;1.50;;;;;;;;;;5029939;28;20080;-86
2022/10/03 15:28:56;;;;;;;3.58;1.17;;;;;;;;;;5042910;28;20031;-86
2022/10/03 15:31:35;;;;;;;10.02;1.67;;;;;;;;;;5045211;28;20032;-87
2022/10/03 15:34:02;;;;;;;5.88;1.33;;;;;;;;;;5034089;28;20032;-87